Time;durP1;ratioP1;P1;durP2;ratioP2;P2;SDS_P1;SDS_P2;PMS_P1;PMS_P2;Temp;Humidity;BMP_temperature;BMP_pressure;BME280_temperature;BME280_humidity;BME280_pressure;Samples;Min_cycle;Max_cycle;Signal;HPM_P1;HPM_P2
2023/03/07 00:00:35;;;;;;;19.98;13.38;;;5.40;99.90;;;;;;5026277;28;20409;-48
2023/03/07 00:03:01;;;;;;;19.85;13.15;;;5.50;99.90;;;;;;5027200;28;20037;-49
2023/03/07 00:05:26;;;;;;;20.58;12.93;;;5.50;99.90;;;;;;5034297;28;20057;-48
2023/03/07 00:07:52;;;;;;;20.05;13.00;;;5.50;99.90;;;;;;4987958;28;20034;-47
2023/03/07 00:10:18;;;;;;;22.08;13.18;;;5.50;99.90;;;;;;5021371;28;20029;-47
2023/03/07 00:12:43;;;;;;;18.98;13.23;;;5.60;99.90;;;;;;5017845;28;20060;-48
2023/03/07 00:15:10;;;;;;;17.63;12.00;;;5.50;99.90;;;;;;5006237;28;20026;-48
2023/03/07 00:17:36;;;;;;;20.00;12.55;;;5.50;99.90;;;;;;5020012;28;20038;-49
2023/03/07 00:20:07;;;;;;;18.00;12.40;;;5.60;99.90;;;;;;5025158;28;20803;-46
2023/03/07 00:22:34;;;;;;;17.60;12.18;;;5.60;99.90;;;;;;5023187;28;20061;-47
2023/03/07 00:25:00;;;;;;;17.15;11.88;;;5.60;99.90;;;;;;5033811;28;20493;-46
2023/03/07 00:27:26;;;;;;;16.85;12.20;;;5.60;99.90;;;;;;5035306;28;20041;-51
2023/03/07 00:29:52;;;;;;;18.65;11.75;;;5.60;99.90;;;;;;5025958;28;20042;-47
2023/03/07 00:32:17;;;;;;;17.38;12.20;;;5.50;99.90;;;;;;5030159;28;20037;-48
2023/03/07 00:34:43;;;;;;;18.65;11.77;;;5.60;99.90;;;;;;5046414;28;20102;-49
2023/03/07 00:37:08;;;;;;;16.73;11.43;;;5.60;99.90;;;;;;5029142;28;20043;-49
2023/03/07 00:39:34;;;;;;;17.13;11.90;;;5.50;99.90;;;;;;5040750;28;20072;-49
2023/03/07 00:41:59;;;;;;;15.15;11.68;;;5.50;99.90;;;;;;5024169;28;20040;-49
2023/03/07 00:44:28;;;;;;;16.05;11.57;;;5.50;99.90;;;;;;5024961;28;20966;-48
2023/03/07 00:46:54;;;;;;;17.50;11.20;;;5.50;99.90;;;;;;5023109;28;20037;-48
2023/03/07 00:49:20;;;;;;;16.92;11.95;;;5.50;99.90;;;;;;5003335;28;20041;-49
2023/03/07 00:51:46;;;;;;;15.40;10.88;;;5.50;99.90;;;;;;5022335;28;20041;-49
2023/03/07 00:54:11;;;;;;;17.55;11.10;;;5.50;99.90;;;;;;5025821;28;20080;-51
2023/03/07 00:56:37;;;;;;;17.10;11.45;;;5.60;99.90;;;;;;5021520;28;20034;-48
2023/03/07 00:59:02;;;;;;;15.70;11.43;;;5.60;99.90;;;;;;4999972;28;20029;-49
2023/03/07 01:01:28;;;;;;;17.20;11.75;;;5.60;99.90;;;;;;5029548;28;20121;-47
2023/03/07 01:03:54;;;;;;;17.00;12.05;;;5.60;99.90;;;;;;5030072;28;20095;-49
2023/03/07 01:06:31;;;;;;;16.88;11.25;;;5.70;99.90;;;;;;5027802;28;20065;-51
2023/03/07 01:08:59;;;;;;;18.85;11.75;;;5.60;99.90;;;;;;5030516;28;20037;-49
2023/03/07 01:11:26;;;;;;;16.52;11.68;;;5.50;99.90;;;;;;5033214;28;20034;-47
2023/03/07 01:13:55;;;;;;;15.38;11.07;;;5.60;99.90;;;;;;5028677;28;20033;-48
2023/03/07 01:16:23;;;;;;;15.27;11.27;;;5.70;99.90;;;;;;5023722;28;20103;-48
2023/03/07 01:18:52;;;;;;;15.20;11.00;;;5.60;99.90;;;;;;5035337;28;20044;-49
2023/03/07 01:21:21;;;;;;;15.90;11.15;;;5.50;99.90;;;;;;5022676;28;20393;-50
2023/03/07 01:23:47;;;;;;;12.43;9.25;;;5.50;99.90;;;;;;5027727;28;20065;-48
2023/03/07 01:26:39;;;;;;;13.20;9.25;;;5.60;99.90;;;;;;5015046;28;20969;-48
2023/03/07 01:29:07;;;;;;;12.48;8.60;;;5.60;99.90;;;;;;5022421;28;20060;-50
2023/03/07 01:31:33;;;;;;;12.20;8.98;;;5.50;99.90;;;;;;5023135;28;20559;-49
2023/03/07 01:34:00;;;;;;;11.30;8.32;;;5.50;99.90;;;;;;5014678;28;20037;-49
2023/03/07 01:36:29;;;;;;;11.73;8.60;;;5.50;99.90;;;;;;5044957;28;20072;-48
2023/03/07 01:38:57;;;;;;;10.30;8.07;;;5.40;99.90;;;;;;5046850;28;20033;-53
2023/03/07 01:41:23;;;;;;;12.32;8.52;;;5.50;99.90;;;;;;5041226;28;20029;-47
2023/03/07 01:43:49;;;;;;;9.57;7.20;;;5.50;99.90;;;;;;5044288;28;20029;-51
2023/03/07 01:46:17;;;;;;;11.30;7.50;;;5.40;99.90;;;;;;5044904;28;20493;-49
2023/03/07 01:49:14;;;;;;;8.77;6.95;;;5.50;99.90;;;;;;5031148;28;20041;-49
2023/03/07 01:51:43;;;;;;;7.70;6.45;;;5.50;99.90;;;;;;5039230;28;20037;-49
2023/03/07 01:54:11;;;;;;;7.28;5.90;;;5.50;99.90;;;;;;5047017;28;20037;-50
2023/03/07 01:56:38;;;;;;;8.43;5.88;;;5.50;99.90;;;;;;5048056;28;20041;-49
2023/03/07 01:59:05;;;;;;;7.13;5.55;;;5.50;99.90;;;;;;5039763;28;20033;-53
2023/03/07 02:01:31;;;;;;;7.18;5.10;;;5.40;99.90;;;;;;5047345;28;20040;-49
2023/03/07 02:04:18;;;;;;;7.20;5.65;;;5.30;99.90;;;;;;5048168;28;20033;-51
2023/03/07 02:06:44;;;;;;;7.68;5.55;;;5.50;99.90;;;;;;5041749;28;20120;-50
2023/03/07 02:09:15;;;;;;;6.95;5.57;;;5.50;99.90;;;;;;5038248;28;20132;-51
2023/03/07 02:11:42;;;;;;;6.78;5.45;;;5.50;99.90;;;;;;5027457;28;20043;-51
2023/03/07 02:14:08;;;;;;;7.00;5.85;;;5.50;99.90;;;;;;5048588;28;20052;-49
2023/03/07 02:16:36;;;;;;;7.40;6.03;;;5.50;99.90;;;;;;5045722;28;20474;-48
2023/03/07 02:19:06;;;;;;;8.63;5.75;;;5.50;99.90;;;;;;5043947;28;21293;-47
2023/03/07 02:21:44;;;;;;;7.90;5.72;;;5.50;99.90;;;;;;5046048;28;20052;-52
2023/03/07 02:24:39;;;;;;;7.55;5.82;;;5.60;99.90;;;;;;5046419;28;20033;-50
2023/03/07 02:27:05;;;;;;;7.72;5.93;;;5.60;99.90;;;;;;4999127;28;20037;-48
2023/03/07 02:29:30;;;;;;;7.47;5.97;;;5.60;99.90;;;;;;5019702;28;20615;-51
2023/03/07 02:31:56;;;;;;;7.78;6.00;;;5.60;99.90;;;;;;5026196;28;20108;-52
2023/03/07 02:34:27;;;;;;;8.40;5.47;;;5.70;99.90;;;;;;5033586;28;20103;-52
2023/03/07 02:36:58;;;;;;;7.57;5.50;;;5.70;99.90;;;;;;5034606;28;20051;-50
2023/03/07 02:39:25;;;;;;;7.53;5.43;;;5.60;99.90;;;;;;5032892;28;20136;-53
2023/03/07 02:41:54;;;;;;;7.45;5.30;;;5.60;99.90;;;;;;5038055;28;20041;-50
2023/03/07 02:44:20;;;;;;;7.93;5.90;;;5.50;99.90;;;;;;5038471;28;20049;-53
2023/03/07 02:46:46;;;;;;;7.70;5.05;;;5.50;99.90;;;;;;5030107;28;20049;-49
2023/03/07 02:49:12;;;;;;;5.82;5.00;;;5.40;99.90;;;;;;5028486;28;20184;-50
2023/03/07 02:51:37;;;;;;;7.95;6.03;;;5.50;99.90;;;;;;5032699;28;20065;-52
2023/03/07 02:54:03;;;;;;;8.07;5.45;;;5.60;99.90;;;;;;5015919;28;20412;-49
2023/03/07 02:56:29;;;;;;;7.68;5.97;;;5.50;99.90;;;;;;5028907;28;20035;-48
2023/03/07 02:58:55;;;;;;;8.05;6.03;;;5.60;99.90;;;;;;5032262;28;20055;-52
2023/03/07 03:01:21;;;;;;;7.85;5.93;;;5.60;99.90;;;;;;5034580;28;20490;-50
2023/03/07 03:03:47;;;;;;;7.18;5.78;;;5.50;99.90;;;;;;5020910;28;20037;-49
2023/03/07 03:06:12;;;;;;;6.70;5.95;;;5.60;99.90;;;;;;5027475;28;20061;-52
2023/03/07 03:08:38;;;;;;;9.13;6.13;;;5.60;99.90;;;;;;5032996;28;20029;-49
2023/03/07 03:11:04;;;;;;;7.53;5.93;;;5.60;99.90;;;;;;5022984;28;20445;-50
2023/03/07 03:13:29;;;;;;;7.22;5.78;;;5.40;99.90;;;;;;5019322;28;20053;-51
2023/03/07 03:15:56;;;;;;;8.40;6.75;;;5.40;99.90;;;;;;5026391;28;20038;-48
2023/03/07 03:18:25;;;;;;;8.38;6.85;;;5.40;99.90;;;;;;5028431;28;20047;-48
2023/03/07 03:20:51;;;;;;;7.82;7.00;;;5.40;99.90;;;;;;5021275;28;20034;-49
2023/03/07 03:23:17;;;;;;;7.82;6.80;;;5.50;99.90;;;;;;5026895;28;20041;-49
2023/03/07 03:25:42;;;;;;;7.57;5.95;;;5.60;99.90;;;;;;5028795;28;20343;-49
2023/03/07 03:28:08;;;;;;;7.82;6.15;;;5.50;99.90;;;;;;5027054;28;20030;-51
2023/03/07 03:30:34;;;;;;;7.22;5.57;;;5.40;99.90;;;;;;5025478;28;20029;-49
2023/03/07 03:33:03;;;;;;;6.13;4.68;;;5.40;99.90;;;;;;5028221;28;20072;-48
2023/03/07 03:35:28;;;;;;;7.35;5.55;;;5.40;99.90;;;;;;5027358;28;20397;-53
2023/03/07 03:37:55;;;;;;;6.38;4.63;;;5.30;99.90;;;;;;5027642;28;20022;-51
2023/03/07 03:40:20;;;;;;;7.07;5.15;;;5.50;99.90;;;;;;5026352;28;20477;-51
2023/03/07 03:42:46;;;;;;;6.15;4.90;;;5.40;99.90;;;;;;5035140;28;20037;-49
2023/03/07 03:45:15;;;;;;;7.20;5.38;;;5.40;99.90;;;;;;5026388;28;20515;-50
2023/03/07 03:47:41;;;;;;;7.13;5.43;;;5.50;99.90;;;;;;5026813;28;20049;-53
2023/03/07 03:50:08;;;;;;;6.68;5.18;;;5.50;99.90;;;;;;5026707;28;20441;-51
2023/03/07 03:52:36;;;;;;;7.22;5.20;;;5.50;99.90;;;;;;5027300;28;20060;-50
2023/03/07 03:55:03;;;;;;;7.47;5.50;;;5.50;99.90;;;;;;5026693;28;20086;-50
2023/03/07 03:57:28;;;;;;;8.07;6.10;;;5.60;99.90;;;;;;5025504;28;20480;-50
2023/03/07 03:59:54;;;;;;;8.50;5.82;;;5.70;99.90;;;;;;5031468;28;20151;-51
2023/03/07 04:02:21;;;;;;;10.38;6.63;;;5.70;99.90;;;;;;5026573;28;20041;-52
2023/03/07 04:04:46;;;;;;;8.20;6.45;;;5.70;99.90;;;;;;5027028;28;20080;-51
2023/03/07 04:07:12;;;;;;;8.95;6.70;;;5.80;99.90;;;;;;5025149;28;20057;-52
2023/03/07 04:09:37;;;;;;;9.32;6.93;;;5.70;99.90;;;;;;5026456;28;20389;-50
2023/03/07 04:12:03;;;;;;;10.18;7.35;;;5.60;99.90;;;;;;5025655;28;20086;-52
2023/03/07 04:14:28;;;;;;;11.27;8.20;;;5.70;99.90;;;;;;5026796;28;20026;-50
2023/03/07 04:16:54;;;;;;;12.95;9.40;;;5.70;99.90;;;;;;5035477;28;20064;-49
2023/03/07 04:19:20;;;;;;;14.95;10.80;;;5.50;99.90;;;;;;5030446;28;20060;-51
2023/03/07 04:21:45;;;;;;;16.92;11.25;;;5.50;99.90;;;;;;5011463;28;20037;-48
2023/03/07 04:24:11;;;;;;;17.05;12.38;;;5.40;99.90;;;;;;5030567;28;20057;-50
2023/03/07 04:26:36;;;;;;;18.27;13.18;;;5.40;99.90;;;;;;5025586;28;20068;-51
2023/03/07 04:29:03;;;;;;;18.63;13.25;;;5.40;99.90;;;;;;5014773;28;20095;-49
2023/03/07 04:31:29;;;;;;;20.90;14.05;;;5.40;99.90;;;;;;5025892;28;20497;-49
2023/03/07 04:33:55;;;;;;;19.38;14.07;;;5.40;99.90;;;;;;5033439;28;20082;-49
2023/03/07 04:36:22;;;;;;;20.25;14.25;;;5.40;99.90;;;;;;5026091;28;20029;-51
2023/03/07 04:38:49;;;;;;;18.77;13.25;;;5.50;99.90;;;;;;5026221;28;20042;-49
2023/03/07 04:41:20;;;;;;;18.48;13.13;;;5.40;99.90;;;;;;5025714;28;20075;-52
2023/03/07 04:43:46;;;;;;;19.15;13.48;;;5.50;99.90;;;;;;5025283;28;20485;-47
2023/03/07 04:46:13;;;;;;;18.85;13.23;;;5.40;99.90;;;;;;5015416;28;20087;-52
2023/03/07 04:48:39;;;;;;;17.92;12.10;;;5.40;99.90;;;;;;5022681;28;20039;-52
2023/03/07 04:51:05;;;;;;;20.15;13.18;;;5.40;99.90;;;;;;5024517;28;20426;-49
2023/03/07 04:53:31;;;;;;;18.30;13.43;;;5.40;99.90;;;;;;5025366;28;20038;-52
2023/03/07 04:55:58;;;;;;;19.17;13.75;;;5.40;99.90;;;;;;5026177;28;20034;-49
2023/03/07 04:58:24;;;;;;;22.10;13.95;;;5.40;99.90;;;;;;5021835;28;20119;-48
2023/03/07 05:00:50;;;;;;;19.77;14.10;;;5.40;99.90;;;;;;5026502;28;20037;-49
2023/03/07 05:03:15;;;;;;;19.52;15.18;;;5.30;99.90;;;;;;5032410;28;20392;-52
2023/03/07 05:05:41;;;;;;;19.75;14.20;;;5.40;99.90;;;;;;5024969;28;20121;-51
2023/03/07 05:08:07;;;;;;;19.45;13.98;;;5.30;99.90;;;;;;5023484;28;20026;-51
2023/03/07 05:10:34;;;;;;;19.40;14.70;;;5.30;99.90;;;;;;5027677;28;20036;-47
2023/03/07 05:13:00;;;;;;;21.27;15.38;;;5.40;99.90;;;;;;5028750;28;20061;-52
2023/03/07 05:15:26;;;;;;;22.02;15.77;;;5.40;99.90;;;;;;5025394;28;20290;-51
2023/03/07 05:17:51;;;;;;;22.33;15.20;;;5.40;99.90;;;;;;5033008;28;20556;-50
2023/03/07 05:20:18;;;;;;;22.10;15.88;;;5.40;99.90;;;;;;5026054;28;20113;-49
2023/03/07 05:22:43;;;;;;;21.30;16.02;;;5.40;99.90;;;;;;5026072;28;20091;-52
2023/03/07 05:25:09;;;;;;;20.70;15.25;;;5.40;99.90;;;;;;5024978;28;20026;-51
2023/03/07 05:27:34;;;;;;;21.45;15.05;;;5.40;99.90;;;;;;5029252;28;20190;-52
2023/03/07 05:30:00;;;;;;;24.08;16.23;;;5.50;99.90;;;;;;5029129;28;20061;-49
2023/03/07 05:32:25;;;;;;;20.92;16.10;;;5.50;99.90;;;;;;5022459;28;20045;-52
2023/03/07 05:34:51;;;;;;;19.65;15.30;;;5.60;99.90;;;;;;5026561;28;20689;-52
2023/03/07 05:37:17;;;;;;;23.10;15.60;;;5.50;99.90;;;;;;5023546;28;20125;-51
2023/03/07 05:39:42;;;;;;;22.30;15.80;;;5.40;99.90;;;;;;5034697;28;20367;-52
2023/03/07 05:42:08;;;;;;;20.63;14.80;;;5.40;99.90;;;;;;5024792;28;20426;-49
2023/03/07 05:44:34;;;;;;;19.85;14.85;;;5.40;99.90;;;;;;5032342;28;20071;-53
2023/03/07 05:46:59;;;;;;;21.23;14.93;;;5.40;99.90;;;;;;5040779;28;20052;-51
2023/03/07 05:49:25;;;;;;;20.23;14.90;;;5.40;99.90;;;;;;5035017;28;20045;-52
2023/03/07 05:51:50;;;;;;;21.67;15.50;;;5.40;99.90;;;;;;5029222;28;20060;-51
2023/03/07 05:54:16;;;;;;;20.27;14.75;;;5.40;99.90;;;;;;5029262;28;20695;-49
2023/03/07 05:56:42;;;;;;;20.35;14.85;;;5.30;99.90;;;;;;5028432;28;20373;-51
2023/03/07 05:59:10;;;;;;;19.52;14.50;;;5.40;99.90;;;;;;5035208;28;20067;-48
2023/03/07 06:01:36;;;;;;;19.52;15.13;;;5.40;99.90;;;;;;5044031;28;20045;-51
2023/03/07 06:04:01;;;;;;;21.75;14.90;;;5.40;99.90;;;;;;5028070;28;20038;-49
2023/03/07 06:06:27;;;;;;;22.80;15.98;;;5.40;99.90;;;;;;5024566;28;20107;-48
2023/03/07 06:08:53;;;;;;;20.45;14.90;;;5.30;99.90;;;;;;5028127;28;20041;-52
2023/03/07 06:11:19;;;;;;;21.33;14.75;;;5.40;99.90;;;;;;5029010;28;20061;-52
2023/03/07 06:13:44;;;;;;;20.85;14.75;;;5.40;99.90;;;;;;5028551;28;20121;-49
2023/03/07 06:16:10;;;;;;;19.92;14.10;;;5.50;99.90;;;;;;5028813;28;20038;-49
2023/03/07 06:18:35;;;;;;;21.70;15.13;;;5.50;99.90;;;;;;5015375;28;20040;-48
2023/03/07 06:21:06;;;;;;;21.73;14.90;;;5.50;99.90;;;;;;5031588;28;20044;-51
2023/03/07 06:23:33;;;;;;;21.20;15.13;;;5.50;99.90;;;;;;5028256;28;20037;-49
2023/03/07 06:26:00;;;;;;;22.48;15.38;;;5.50;99.90;;;;;;5014846;28;20646;-51
2023/03/07 06:28:25;;;;;;;21.20;15.35;;;5.40;99.90;;;;;;5030656;28;20044;-49
2023/03/07 06:30:51;;;;;;;22.17;15.43;;;5.40;99.90;;;;;;5038492;28;20316;-52
2023/03/07 06:33:17;;;;;;;23.88;15.15;;;5.40;99.90;;;;;;5029341;28;20033;-52
2023/03/07 06:35:43;;;;;;;23.95;16.10;;;5.40;99.90;;;;;;5027808;28;20485;-49
2023/03/07 06:38:11;;;;;;;23.13;16.05;;;5.40;99.90;;;;;;5032465;28;20034;-50
2023/03/07 06:40:37;;;;;;;21.35;15.10;;;5.50;99.90;;;;;;5012560;28;20120;-50
2023/03/07 06:43:02;;;;;;;24.80;15.65;;;5.50;99.90;;;;;;5032526;28;20060;-49
2023/03/07 06:45:29;;;;;;;21.90;15.48;;;5.50;99.90;;;;;;5026683;28;20440;-50
2023/03/07 06:47:54;;;;;;;22.80;16.17;;;5.40;99.90;;;;;;5029920;28;20508;-52
2023/03/07 06:50:20;;;;;;;21.77;14.93;;;5.60;99.90;;;;;;5027319;28;20098;-52
2023/03/07 06:52:47;;;;;;;23.20;15.75;;;5.60;99.90;;;;;;5035549;28;20045;-53
2023/03/07 06:55:13;;;;;;;24.48;15.63;;;5.60;99.90;;;;;;5025531;28;20033;-51
2023/03/07 06:57:38;;;;;;;21.65;14.43;;;5.60;99.90;;;;;;5026470;28;20098;-51
2023/03/07 07:00:05;;;;;;;23.75;15.43;;;5.40;99.90;;;;;;5034761;28;20037;-52
2023/03/07 07:02:31;;;;;;;22.92;14.88;;;5.50;99.90;;;;;;5021076;28;20465;-52
2023/03/07 07:04:57;;;;;;;23.00;15.25;;;5.50;99.90;;;;;;5022462;28;20096;-53
2023/03/07 07:07:24;;;;;;;25.17;14.23;;;5.40;99.90;;;;;;5026570;28;20033;-53
2023/03/07 07:09:50;;;;;;;21.08;14.63;;;5.50;99.90;;;;;;5027082;28;20037;-51
2023/03/07 07:12:16;;;;;;;21.75;15.32;;;5.50;99.90;;;;;;5035011;28;20037;-52
2023/03/07 07:14:42;;;;;;;25.73;15.48;;;5.50;99.90;;;;;;5038654;28;20097;-51
2023/03/07 07:17:07;;;;;;;22.95;15.93;;;5.50;99.90;;;;;;5041714;28;20482;-52
2023/03/07 07:19:33;;;;;;;23.77;15.50;;;5.60;99.90;;;;;;5030755;28;20029;-53
2023/03/07 07:21:59;;;;;;;24.58;15.68;;;5.60;99.90;;;;;;5026582;28;20068;-50
2023/03/07 07:24:25;;;;;;;26.10;15.35;;;5.50;99.90;;;;;;5016978;28;20070;-53
2023/03/07 07:26:50;;;;;;;24.05;15.27;;;5.50;99.90;;;;;;5023897;28;20037;-51
2023/03/07 07:29:16;;;;;;;23.77;14.57;;;5.60;99.90;;;;;;5018865;28;20029;-52
2023/03/07 07:31:42;;;;;;;24.77;16.35;;;5.60;99.90;;;;;;5031568;28;20032;-51
2023/03/07 07:34:07;;;;;;;24.85;16.60;;;5.70;99.90;;;;;;5026552;28;20179;-53
2023/03/07 07:36:33;;;;;;;25.02;16.35;;;5.70;99.90;;;;;;5028442;28;20037;-53
2023/03/07 07:39:04;;;;;;;25.55;16.30;;;5.70;99.90;;;;;;5032829;28;20424;-51
2023/03/07 07:41:31;;;;;;;28.95;16.67;;;5.60;99.90;;;;;;5034079;28;20120;-54
2023/03/07 07:43:57;;;;;;;24.13;16.55;;;5.60;99.90;;;;;;5029292;28;20083;-53
2023/03/07 07:46:23;;;;;;;23.77;15.60;;;5.70;99.90;;;;;;5033507;28;20135;-52
2023/03/07 07:48:48;;;;;;;22.15;15.05;;;5.70;99.90;;;;;;5027081;28;20032;-52
2023/03/07 07:51:14;;;;;;;23.90;14.93;;;5.60;99.90;;;;;;5027882;28;20057;-52
2023/03/07 07:53:39;;;;;;;21.80;14.95;;;5.60;99.90;;;;;;5026570;28;20051;-52
2023/03/07 07:56:05;;;;;;;24.83;15.65;;;5.60;99.90;;;;;;5030807;28;20156;-53
2023/03/07 07:58:31;;;;;;;23.10;15.30;;;5.70;99.90;;;;;;5036352;28;20080;-52
2023/03/07 08:00:57;;;;;;;24.92;15.70;;;5.70;99.90;;;;;;5028961;28;20036;-50
2023/03/07 08:03:22;;;;;;;23.95;14.93;;;5.80;99.90;;;;;;5018763;28;20030;-52
2023/03/07 08:05:48;;;;;;;24.08;15.00;;;5.80;99.90;;;;;;5026100;28;20061;-53
2023/03/07 08:08:15;;;;;;;23.05;15.40;;;5.80;99.90;;;;;;5024954;28;20040;-53
2023/03/07 08:10:42;;;;;;;22.70;14.70;;;5.80;99.90;;;;;;5017929;28;20037;-52
2023/03/07 08:13:11;;;;;;;22.48;14.02;;;5.70;99.90;;;;;;5007457;28;20037;-52
2023/03/07 08:15:37;;;;;;;23.80;14.77;;;5.60;99.90;;;;;;5034725;28;20175;-52
2023/03/07 08:18:03;;;;;;;18.95;13.30;;;5.80;99.90;;;;;;5029141;28;20125;-53
2023/03/07 08:20:28;;;;;;;21.10;13.95;;;5.80;99.90;;;;;;5033593;28;20041;-51
2023/03/07 08:22:54;;;;;;;18.77;13.98;;;5.70;99.90;;;;;;5032199;28;20033;-53
2023/03/07 08:25:23;;;;;;;24.42;14.63;;;5.70;99.90;;;;;;5025910;28;20037;-53
2023/03/07 08:27:53;;;;;;;20.02;13.68;;;5.70;99.90;;;;;;5013973;28;20612;-51
2023/03/07 08:30:23;;;;;;;22.63;13.93;;;5.70;99.90;;;;;;5025249;28;20720;-54
2023/03/07 08:32:51;;;;;;;21.13;13.95;;;5.60;99.90;;;;;;5020727;28;20068;-52
2023/03/07 08:35:17;;;;;;;23.77;14.10;;;5.60;99.90;;;;;;5025750;28;20037;-53
2023/03/07 08:37:43;;;;;;;22.20;14.80;;;5.60;99.90;;;;;;5031898;28;20607;-53
2023/03/07 08:40:09;;;;;;;22.92;14.75;;;5.70;99.90;;;;;;5021364;28;20041;-53
2023/03/07 08:42:34;;;;;;;19.73;13.95;;;5.60;99.90;;;;;;5021928;28;20045;-51
2023/03/07 08:45:00;;;;;;;22.02;15.13;;;5.50;99.90;;;;;;5028156;28;20033;-51
2023/03/07 08:47:26;;;;;;;22.55;14.77;;;5.30;99.90;;;;;;5029148;28;20515;-52
2023/03/07 08:49:51;;;;;;;23.27;15.07;;;5.30;99.90;;;;;;5022886;28;20125;-52
2023/03/07 08:52:17;;;;;;;22.75;14.98;;;5.30;99.90;;;;;;5024329;28;20144;-51
2023/03/07 08:54:43;;;;;;;16.35;11.70;;;5.20;99.90;;;;;;5032490;28;20091;-52
2023/03/07 08:57:08;;;;;;;12.23;8.75;;;4.90;99.90;;;;;;5029407;28;20083;-49
2023/03/07 08:59:34;;;;;;;11.32;7.75;;;4.70;99.90;;;;;;4998313;28;20116;-53
2023/03/07 09:01:59;;;;;;;8.07;5.90;;;4.30;99.90;;;;;;5012686;28;20056;-51
2023/03/07 09:04:25;;;;;;;8.35;6.35;;;4.10;99.90;;;;;;5008348;28;20041;-50
2023/03/07 09:06:51;;;;;;;13.73;8.60;;;3.90;99.90;;;;;;5032688;28;20065;-50
2023/03/07 09:09:16;;;;;;;7.55;5.85;;;4.00;99.90;;;;;;5025015;28;20056;-50
2023/03/07 09:11:42;;;;;;;7.85;5.75;;;4.20;99.90;;;;;;5026714;28;20037;-52
2023/03/07 09:14:08;;;;;;;8.32;6.47;;;4.00;99.90;;;;;;5035087;28;20069;-49
2023/03/07 09:16:33;;;;;;;5.75;4.13;;;4.10;99.90;;;;;;5023286;28;20040;-51
2023/03/07 09:18:59;;;;;;;4.82;3.47;;;4.10;99.90;;;;;;5037012;28;20029;-51
2023/03/07 09:21:24;;;;;;;4.75;3.53;;;4.00;99.90;;;;;;5026667;28;20083;-53
2023/03/07 09:23:50;;;;;;;6.32;4.78;;;4.30;99.90;;;;;;5022327;28;20536;-52
2023/03/07 09:26:16;;;;;;;5.20;4.10;;;4.00;99.90;;;;;;5023917;28;20037;-51
2023/03/07 09:28:41;;;;;;;4.38;3.22;;;4.10;99.90;;;;;;5024827;28;20057;-52
2023/03/07 09:31:12;;;;;;;4.88;3.20;;;3.90;99.90;;;;;;5023668;28;20025;-50
2023/03/07 09:33:38;;;;;;;5.70;3.05;;;4.00;99.90;;;;;;5030621;28;20083;-51
2023/03/07 09:36:06;;;;;;;6.25;3.47;;;3.90;99.90;;;;;;5026162;28;20052;-51
2023/03/07 09:38:32;;;;;;;3.35;2.63;;;4.00;99.90;;;;;;5028796;28;20053;-50
2023/03/07 09:41:18;;;;;;;6.40;4.43;;;4.00;99.90;;;;;;5033337;28;20045;-49
2023/03/07 09:44:09;;;;;;;5.55;3.28;;;3.90;99.90;;;;;;5045080;28;20033;-51
2023/03/07 09:46:50;;;;;;;3.88;2.67;;;3.80;99.90;;;;;;5030919;28;20045;-52
2023/03/07 09:49:39;;;;;;;3.60;2.90;;;3.70;99.90;;;;;;5026708;28;20501;-48
2023/03/07 09:52:30;;;;;;;3.65;3.20;;;3.80;99.90;;;;;;5045121;28;20033;-51
2023/03/07 09:55:04;;;;;;;3.85;2.83;;;4.10;99.90;;;;;;5035082;28;20137;-51
2023/03/07 09:57:31;;;;;;;;;;;4.00;99.90;;;;;;5026707;28;20033;-53
2023/03/07 10:00:23;;;;;;;3.70;3.20;;;3.70;99.90;;;;;;5027075;28;20084;-49
2023/03/07 10:02:55;;;;;;;4.38;2.72;;;3.50;99.90;;;;;;5032674;28;20032;-52
2023/03/07 10:05:34;;;;;;;3.70;2.95;;;3.30;99.90;;;;;;5038533;28;20578;-48
2023/03/07 10:08:00;;;;;;;4.57;3.22;;;3.20;99.90;;;;;;5025212;28;20044;-51
2023/03/07 10:10:38;;;;;;;3.78;3.10;;;3.30;99.90;;;;;;5036557;28;20102;-52
2023/03/07 10:13:23;;;;;;;4.70;3.33;;;3.50;99.90;;;;;;5034680;28;20052;-49
2023/03/07 10:15:54;;;;;;;4.22;3.20;;;3.50;99.90;;;;;;5028103;28;20052;-52
2023/03/07 10:18:22;;;;;;;72.30;36.78;;;3.80;99.90;;;;;;5026838;28;20030;-51
2023/03/07 10:20:57;;;;;;;3.78;2.65;;;3.70;99.90;;;;;;5042111;28;20047;-49
2023/03/07 10:23:41;;;;;;;4.07;2.78;;;3.60;99.90;;;;;;5033890;28;20033;-51
2023/03/07 10:26:33;;;;;;;3.80;2.65;;;3.70;99.90;;;;;;5023600;28;20096;-49
2023/03/07 10:29:10;;;;;;;3.13;2.50;;;3.60;99.90;;;;;;5031462;28;20049;-52
2023/03/07 10:31:40;;;;;;;3.40;2.58;;;3.70;99.90;;;;;;5029346;28;20047;-49
2023/03/07 10:34:25;;;;;;;3.53;2.78;;;3.60;99.90;;;;;;5026087;28;20038;-49
2023/03/07 10:36:55;;;;;;;4.07;2.70;;;3.60;99.90;;;;;;5028928;28;20566;-51
2023/03/07 10:39:46;;;;;;;3.80;2.55;;;3.60;99.90;;;;;;5032687;28;20113;-50
2023/03/07 10:42:13;;;;;;;4.57;2.40;;;3.60;99.90;;;;;;5027710;28;20030;-48
2023/03/07 10:44:39;;;;;;;3.38;2.50;;;3.50;99.90;;;;;;5039589;28;20037;-52
2023/03/07 10:47:05;;;;;;;3.45;2.45;;;3.40;99.90;;;;;;5023139;28;20302;-51
2023/03/07 10:49:36;;;;;;;2.90;2.55;;;3.40;99.90;;;;;;5027437;28;20033;-51
2023/03/07 10:52:35;;;;;;;3.72;2.85;;;3.60;99.90;;;;;;5022917;28;20452;-50
2023/03/07 10:55:28;;;;;;;6.80;5.43;;;3.80;99.90;;;;;;5015642;28;20045;-49
2023/03/07 10:58:06;;;;;;;3.20;2.50;;;3.80;99.90;;;;;;5036485;28;20034;-52
2023/03/07 11:00:31;;;;;;;4.80;3.38;;;3.90;99.90;;;;;;5041787;28;20120;-51
2023/03/07 11:02:58;;;;;;;4.97;3.42;;;3.90;99.90;;;;;;5039179;28;20125;-51
2023/03/07 11:05:31;;;;;;;4.60;3.40;;;4.00;99.90;;;;;;5044222;28;20044;-53
2023/03/07 11:07:57;;;;;;;3.53;2.17;;;3.90;99.90;;;;;;5040573;28;20036;-53
2023/03/07 11:10:35;;;;;;;4.35;3.05;;;4.10;99.90;;;;;;5038708;28;20044;-52
2023/03/07 11:13:23;;;;;;;4.50;3.55;;;4.00;99.90;;;;;;5039037;28;20041;-51
2023/03/07 11:15:49;;;;;;;5.80;3.60;;;4.00;99.90;;;;;;5050024;28;20041;-53
2023/03/07 11:18:26;;;;;;;7.28;3.95;;;4.10;99.90;;;;;;5047315;28;20044;-54
2023/03/07 11:20:51;;;;;;;5.80;3.70;;;4.10;99.90;;;;;;5050470;28;20040;-53
2023/03/07 11:23:24;;;;;;;6.22;3.40;;;4.10;99.90;;;;;;5046335;28;20037;-53
2023/03/07 11:25:52;;;;;;;4.28;3.22;;;4.20;99.90;;;;;;5045763;28;20040;-51
2023/03/07 11:28:26;;;;;;;5.07;3.70;;;4.10;99.90;;;;;;5048797;28;20036;-53
2023/03/07 11:31:22;;;;;;;5.47;3.75;;;4.10;99.90;;;;;;5045271;28;20055;-50
2023/03/07 11:34:11;;;;;;;5.22;3.25;;;4.20;99.90;;;;;;5042831;28;20076;-51
2023/03/07 11:36:41;;;;;;;5.15;3.30;;;3.90;99.90;;;;;;5042169;28;20064;-51
2023/03/07 11:39:42;;;;;;;4.82;3.15;;;4.10;99.90;;;;;;5041649;28;20688;-52
2023/03/07 11:42:16;;;;;;;5.75;3.55;;;4.20;99.90;;;;;;5035869;28;20389;-53
2023/03/07 11:44:48;;;;;;;5.13;3.15;;;4.20;99.90;;;;;;5039289;28;20037;-53
2023/03/07 11:47:36;;;;;;;3.47;3.03;;;4.10;99.90;;;;;;5041320;28;20067;-53
2023/03/07 11:50:20;;;;;;;4.65;3.38;;;4.00;99.90;;;;;;5043986;28;20087;-52
2023/03/07 11:53:23;;;;;;;4.32;3.28;;;4.00;99.90;;;;;;5046489;28;20041;-51
2023/03/07 11:56:03;;;;;;;5.25;3.53;;;4.10;99.90;;;;;;5036928;28;20408;-55
2023/03/07 11:58:53;;;;;;;14.40;7.50;;;4.10;99.90;;;;;;5033834;28;20036;-53
2023/03/07 12:01:37;;;;;;;6.20;4.43;;;4.10;99.90;;;;;;5024058;28;20113;-53
2023/03/07 12:04:34;;;;;;;8.27;4.95;;;4.10;99.90;;;;;;5014888;28;20057;-54
2023/03/07 12:07:26;;;;;;;4.60;3.45;;;4.30;99.90;;;;;;5016795;28;20073;-53
2023/03/07 12:10:20;;;;;;;13.35;6.10;;;4.40;99.90;;;;;;5019207;28;20167;-52
2023/03/07 12:13:07;;;;;;;;;;;4.60;99.90;;;;;;5018279;28;20041;-52
2023/03/07 12:15:38;;;;;;;11.85;6.35;;;4.20;99.90;;;;;;5031039;28;19913;-54
2023/03/07 12:18:19;;;;;;;4.70;3.85;;;4.20;99.90;;;;;;5042927;28;20033;-51
2023/03/07 12:21:10;;;;;;;17.92;9.23;;;4.30;99.90;;;;;;5045013;28;20037;-54
2023/03/07 12:23:59;;;;;;;6.15;4.55;;;4.40;99.90;;;;;;5044455;28;20044;-52
2023/03/07 12:26:34;;;;;;;5.07;3.92;;;4.30;99.90;;;;;;5044127;28;20045;-53
2023/03/07 12:29:39;;;;;;;5.70;4.22;;;4.40;99.90;;;;;;5038922;28;20039;-52
2023/03/07 12:32:23;;;;;;;5.68;4.50;;;4.60;99.90;;;;;;5015500;28;20060;-52
2023/03/07 12:34:54;;;;;;;5.18;4.10;;;4.70;99.90;;;;;;5004812;28;20045;-53
2023/03/07 12:37:26;;;;;;;5.20;4.35;;;4.70;99.90;;;;;;5018965;28;20037;-52
2023/03/07 12:39:58;;;;;;;4.95;4.30;;;4.80;99.90;;;;;;5024389;28;20037;-52
2023/03/07 12:42:51;;;;;;;5.53;4.35;;;4.80;99.90;;;;;;5024470;28;20540;-54
2023/03/07 12:45:26;;;;;;;5.35;4.25;;;5.00;99.90;;;;;;5015204;28;20033;-53
2023/03/07 12:48:27;;;;;;;4.82;4.05;;;5.10;99.90;;;;;;5032513;28;20140;-54
2023/03/07 12:51:05;;;;;;;5.57;4.32;;;4.90;99.90;;;;;;4961648;28;20456;-54
2023/03/07 12:53:56;;;;;;;4.57;3.72;;;4.80;99.90;;;;;;5037043;28;20407;-54
2023/03/07 12:57:02;;;;;;;4.57;4.00;;;4.70;99.90;;;;;;5049706;28;20052;-52
2023/03/07 12:59:31;;;;;;;4.05;3.40;;;4.90;99.90;;;;;;4969901;28;20275;-54
2023/03/07 13:02:19;;;;;;;5.30;3.45;;;4.90;99.90;;;;;;4969105;28;20672;-53